Terminal Aerodrome Forecast
Issued by NWS

Home | Current Version | Previous Version | Graphics & Text | Print | Product List | Glossary On
Versions: 1 2 3 4 5 6 7 8 9 10 11 12 13
000
FTUS43 KIWX 162300
TAFSBN
TAF
KSBN 162336Z 1700/1724 15014G24KT P6SM SCT200
     FM170100 14012KT P6SM SCT200
     FM171500 20013G21KT P6SM SCT050 BKN200=

USA.gov is the U.S. government's official web portal to all federal, state and local government web resources and services.